Time;durP1;ratioP1;P1;durP2;ratioP2;P2;SDS_P1;SDS_P2;PMS_P1;PMS_P2;Temp;Humidity;BMP_temperature;BMP_pressure;BME280_temperature;BME280_humidity;BME280_pressure;Samples;Min_cycle;Max_cycle;Signal;HPM_P1;HPM_P2
2022/09/13 00:01:47;;;;;;;7.00;5.93;;;;;;;15.72;90.37;97739.50;4142957;28;21006;-85
2022/09/13 00:03:52;;;;;;;7.60;5.80;;;;;;;15.70;91.69;97731.75;4145980;28;21247;-85
2022/09/13 00:05:55;;;;;;;7.00;5.63;;;;;;;15.69;90.25;97724.03;4156732;28;20679;-85
2022/09/13 00:07:58;;;;;;;6.30;5.60;;;;;;;15.68;90.21;97727.59;4157138;28;20637;-85
2022/09/13 00:10:01;;;;;;;7.57;5.47;;;;;;;15.66;91.00;97730.38;4153526;28;20649;-85
2022/09/13 00:12:04;;;;;;;7.50;5.43;;;;;;;15.62;90.92;97729.03;4171262;28;20650;-85
2022/09/13 00:14:07;;;;;;;6.73;5.67;;;;;;;15.62;90.94;97730.81;4156045;28;20725;-85
2022/09/13 00:16:12;;;;;;;6.50;5.90;;;;;;;15.62;90.73;97734.28;4168958;28;20670;-85
2022/09/13 00:18:16;;;;;;;7.20;6.00;;;;;;;15.62;90.61;97726.41;4158414;28;20743;-85
2022/09/13 00:20:20;;;;;;;8.33;5.70;;;;;;;15.61;90.59;97716.03;4170531;28;20632;-85
2022/09/13 00:22:23;;;;;;;7.20;5.90;;;;;;;15.60;91.52;97715.19;4143268;28;20642;-85
2022/09/13 00:24:26;;;;;;;8.73;5.73;;;;;;;15.57;90.57;97714.66;4143698;28;20645;-85
2022/09/13 00:26:29;;;;;;;7.70;5.33;;;;;;;15.55;90.56;97720.06;4160483;28;20621;-85
2022/09/13 00:28:32;;;;;;;6.60;5.60;;;;;;;15.55;90.87;97721.88;4145632;28;21281;-85
2022/09/13 00:30:36;;;;;;;7.90;6.20;;;;;;;15.52;90.46;97722.16;4155922;28;20745;-85
2022/09/13 00:32:39;;;;;;;7.30;6.50;;;;;;;15.50;90.41;97720.63;4160027;28;20656;-85
2022/09/13 00:34:42;;;;;;;8.33;6.10;;;;;;;15.48;90.89;97725.22;4161757;28;20717;-85
2022/09/13 00:36:46;;;;;;;7.17;5.73;;;;;;;15.43;90.46;97711.69;4140140;28;20732;-85
2022/09/13 00:38:49;;;;;;;9.07;5.97;;;;;;;15.41;90.34;97714.47;4158802;28;20632;-85
2022/09/13 00:40:52;;;;;;;9.30;5.47;;;;;;;15.38;90.45;97706.00;4168214;28;20639;-85
2022/09/13 00:42:55;;;;;;;6.20;5.60;;;;;;;15.37;92.32;97705.19;4162406;28;20637;-85
2022/09/13 00:45:00;;;;;;;6.30;5.47;;;;;;;15.36;92.23;97706.16;4159367;28;20648;-85
2022/09/13 00:47:05;;;;;;;7.00;6.33;;;;;;;15.36;92.00;97705.34;4157677;28;20663;-84
2022/09/13 00:49:14;;;;;;;6.80;5.23;;;;;;;15.35;92.01;97707.13;4144026;28;20641;-85
2022/09/13 00:51:17;;;;;;;7.10;6.40;;;;;;;15.35;91.35;97707.13;4157300;28;20633;-85
2022/09/13 00:53:25;;;;;;;7.57;6.17;;;;;;;15.37;91.41;97717.50;4158404;28;20695;-85
2022/09/13 00:55:32;;;;;;;5.93;5.30;;;;;;;15.34;91.23;97723.88;4142734;28;20649;-85
2022/09/13 00:57:35;;;;;;;10.33;5.77;;;;;;;15.29;90.45;97715.59;4160307;28;20641;-85
2022/09/13 00:59:43;;;;;;;7.00;5.73;;;;;;;15.26;91.72;97715.03;4174534;28;20670;-85
2022/09/13 01:01:48;;;;;;;7.90;6.40;;;;;;;15.23;91.58;97704.81;4154386;28;20632;-85
2022/09/13 01:03:55;;;;;;;6.83;6.13;;;;;;;15.20;91.31;97703.31;4153644;28;20641;-85
2022/09/13 01:06:02;;;;;;;7.60;6.30;;;;;;;15.19;90.58;97701.63;4157743;28;20776;-85
2022/09/13 01:08:21;;;;;;;7.70;6.57;;;;;;;15.19;91.95;97703.44;4158176;28;20668;-85
2022/09/13 01:10:26;;;;;;;7.00;6.03;;;;;;;15.18;90.57;97696.53;4169399;28;20662;-85
2022/09/13 01:12:35;;;;;;;9.00;6.87;;;;;;;15.18;92.17;97694.75;4152771;28;21014;-85
2022/09/13 01:14:38;;;;;;;8.30;6.47;;;;;;;15.17;92.26;97690.44;4154714;28;20999;-85
2022/09/13 01:16:41;;;;;;;8.20;7.10;;;;;;;15.15;91.77;97694.16;4155818;28;20996;-85
2022/09/13 01:18:49;;;;;;;7.77;6.53;;;;;;;15.14;91.56;97700.41;4137769;28;20639;-84
2022/09/13 01:21:11;;;;;;;7.70;6.80;;;;;;;15.13;92.46;97694.28;4155048;28;21099;-85
2022/09/13 01:23:39;;;;;;;8.50;6.63;;;;;;;15.14;91.23;97703.03;4152680;28;20668;-85
2022/09/13 01:26:01;;;;;;;7.13;6.20;;;;;;;15.12;92.69;97707.56;4156481;28;20640;-84
2022/09/13 01:28:17;;;;;;;7.40;6.63;;;;;;;15.12;92.10;97708.41;4161100;28;20645;-85
2022/09/13 01:30:22;;;;;;;7.00;6.30;;;;;;;15.08;91.46;97707.03;4171812;28;20655;-85
2022/09/13 01:32:32;;;;;;;8.37;6.40;;;;;;;15.06;92.89;97708.13;4158934;28;20664;-85
2022/09/13 01:34:43;;;;;;;9.00;5.97;;;;;;;15.05;92.52;97711.75;4174662;28;20678;-85
2022/09/13 01:37:07;;;;;;;6.60;6.00;;;;;;;15.04;91.58;97709.25;4159240;28;20674;-84
2022/09/13 01:39:14;;;;;;;7.87;6.20;;;;;;;14.99;91.93;97709.69;4175778;28;20635;-85
2022/09/13 01:41:32;;;;;;;7.20;6.27;;;;;;;14.98;92.84;97708.03;4170115;28;20717;-85
2022/09/13 01:43:42;;;;;;;7.20;6.30;;;;;;;14.96;92.58;97702.09;4160428;28;20653;-85
2022/09/13 01:45:52;;;;;;;7.10;5.87;;;;;;;14.95;92.69;97705.69;4158041;28;20990;-85
2022/09/13 01:47:58;;;;;;;7.10;5.90;;;;;;;14.94;91.84;97706.63;4169397;28;20985;-85
2022/09/13 01:50:12;;;;;;;5.93;5.33;;;;;;;14.93;91.66;97710.25;4155565;28;20735;-85
2022/09/13 01:52:23;;;;;;;7.47;6.77;;;;;;;14.89;91.72;97698.34;4154922;28;20671;-85
2022/09/13 01:54:34;;;;;;;7.90;6.17;;;;;;;14.87;91.61;97700.31;4151830;28;20628;-85
2022/09/13 01:56:41;;;;;;;7.53;6.30;;;;;;;14.86;92.72;97695.19;4154256;28;20686;-84
2022/09/13 01:58:48;;;;;;;6.60;5.90;;;;;;;14.83;92.01;97696.28;4143106;28;21270;-85
2022/09/13 02:00:59;;;;;;;7.30;6.00;;;;;;;14.82;92.72;97692.00;4172168;28;20634;-85
2022/09/13 02:03:05;;;;;;;8.20;6.57;;;;;;;14.83;92.32;97695.47;4154991;28;20642;-85
2022/09/13 02:05:15;;;;;;;7.83;6.53;;;;;;;14.82;92.89;97691.19;4154916;28;20655;-85
2022/09/13 02:07:20;;;;;;;7.90;6.77;;;;;;;14.80;92.42;97686.06;4167197;28;20667;-85
2022/09/13 02:09:26;;;;;;;6.80;6.10;;;;;;;14.81;92.60;97693.00;4172819;28;23987;-84
2022/09/13 02:11:29;;;;;;;6.83;6.03;;;;;;;14.79;91.96;97694.94;4143734;28;20737;-85
2022/09/13 02:13:36;;;;;;;8.90;7.20;;;;;;;14.80;92.28;97696.56;4142558;28;20657;-85
2022/09/13 02:15:43;;;;;;;7.63;6.50;;;;;;;14.78;92.34;97698.53;4154415;28;20731;-85
2022/09/13 02:17:52;;;;;;;8.20;6.23;;;;;;;14.79;92.69;97699.34;4150344;28;20686;-85
2022/09/13 02:19:57;;;;;;;8.50;6.17;;;;;;;14.75;91.71;97696.16;4169930;28;21056;-85
2022/09/13 02:22:00;;;;;;;8.67;6.73;;;;;;;14.71;91.68;97697.41;4154334;28;21255;-85
2022/09/13 02:24:06;;;;;;;7.60;6.63;;;;;;;14.70;92.14;97694.91;4152988;28;20644;-85
2022/09/13 02:26:12;;;;;;;9.60;6.67;;;;;;;14.70;91.84;97687.03;4157081;28;20685;-85
2022/09/13 02:28:19;;;;;;;6.77;6.10;;;;;;;14.70;91.76;97685.28;4154446;28;20638;-85
2022/09/13 02:30:23;;;;;;;7.43;6.23;;;;;;;14.71;93.09;97696.59;4158824;28;20627;-85
2022/09/13 02:32:30;;;;;;;7.33;5.97;;;;;;;14.71;91.83;97696.59;4152589;28;20644;-85
2022/09/13 02:34:38;;;;;;;8.73;5.90;;;;;;;14.68;91.85;97702.94;4154714;28;21126;-85
2022/09/13 02:36:42;;;;;;;8.97;6.60;;;;;;;14.68;92.90;97702.94;4157363;28;20647;-85
2022/09/13 02:38:50;;;;;;;8.43;6.37;;;;;;;14.65;92.41;97707.66;4157551;28;20644;-85
2022/09/13 02:40:57;;;;;;;7.47;6.20;;;;;;;14.63;92.14;97709.59;4167216;28;20686;-85
2022/09/13 02:43:05;;;;;;;6.80;5.73;;;;;;;14.60;92.30;97720.38;4155472;28;21031;-85
2022/09/13 02:45:09;;;;;;;7.00;6.30;;;;;;;14.57;92.42;97710.13;4172144;28;20655;-85
2022/09/13 02:47:21;;;;;;;6.37;5.37;;;;;;;14.58;92.42;97708.34;4156022;28;20654;-85
2022/09/13 02:49:28;;;;;;;7.00;5.53;;;;;;;14.55;92.95;97706.00;4157158;28;21171;-85
2022/09/13 02:51:38;;;;;;;7.07;6.03;;;;;;;14.53;93.03;97698.25;4157595;28;22036;-85
2022/09/13 02:53:44;;;;;;;7.27;6.37;;;;;;;14.51;92.83;97697.56;4154596;28;20659;-85
2022/09/13 02:55:55;;;;;;;7.57;6.37;;;;;;;14.51;93.28;97700.19;4157404;28;20669;-85
2022/09/13 02:58:02;;;;;;;7.70;5.77;;;;;;;14.50;93.07;97689.84;4158104;28;21031;-85
2022/09/13 03:00:07;;;;;;;7.90;5.73;;;;;;;14.48;92.21;97689.13;4155519;28;20680;-84
2022/09/13 03:02:13;;;;;;;7.00;6.13;;;;;;;14.49;92.53;97690.78;4139949;28;20633;-85
2022/09/13 03:04:16;;;;;;;6.90;6.20;;;;;;;14.48;93.73;97686.50;4142773;28;20664;-85
2022/09/13 03:06:23;;;;;;;8.60;7.30;;;;;;;14.45;92.93;97685.00;4135511;28;20677;-85
2022/09/13 03:08:28;;;;;;;6.90;5.90;;;;;;;14.40;92.88;97681.97;4175443;28;20660;-84
2022/09/13 03:10:38;;;;;;;8.10;6.63;;;;;;;14.41;93.06;97686.22;4156161;28;21238;-85
2022/09/13 03:13:05;;;;;;;10.57;7.30;;;;;;;14.45;92.99;97692.03;4161155;28;20648;-85
2022/09/13 03:15:14;;;;;;;8.03;6.03;;;;;;;14.47;93.15;97695.34;4142119;28;20665;-85
2022/09/13 03:17:30;;;;;;;9.70;6.83;;;;;;;14.46;92.58;97697.13;4162022;28;21218;-85
2022/09/13 03:19:53;;;;;;;7.43;6.43;;;;;;;14.44;93.22;97706.13;4158370;28;20642;-85
2022/09/13 03:22:09;;;;;;;6.97;6.10;;;;;;;14.42;92.74;97708.06;4147093;28;20667;-84
2022/09/13 03:24:18;;;;;;;7.93;6.47;;;;;;;14.38;92.97;97709.31;4145582;28;21208;-85
2022/09/13 03:26:29;;;;;;;8.33;6.20;;;;;;;14.35;92.69;97699.91;4172985;28;21219;-85
2022/09/13 03:28:38;;;;;;;8.87;6.40;;;;;;;14.33;93.55;97695.78;4160597;28;20628;-85
2022/09/13 03:30:44;;;;;;;7.60;6.37;;;;;;;14.30;92.99;97690.81;4144979;28;20635;-85
2022/09/13 03:32:51;;;;;;;7.00;5.67;;;;;;;14.29;93.09;97689.94;4159411;28;20645;-85
2022/09/13 03:35:01;;;;;;;8.17;6.30;;;;;;;14.29;93.56;97686.50;4145104;28;20631;-85
2022/09/13 03:37:07;;;;;;;6.77;6.13;;;;;;;14.28;93.79;97687.47;4160976;28;20638;-85
2022/09/13 03:39:14;;;;;;;7.37;6.10;;;;;;;14.27;93.54;97680.59;4154551;28;20726;-85
2022/09/13 03:41:20;;;;;;;7.33;6.63;;;;;;;14.27;93.50;97670.09;4145222;28;21226;-85
2022/09/13 03:43:28;;;;;;;7.90;6.20;;;;;;;14.26;93.59;97684.16;4154634;28;21363;-85
2022/09/13 03:45:33;;;;;;;8.80;6.03;;;;;;;14.27;93.31;97686.66;4159896;28;20646;-85
2022/09/13 03:47:37;;;;;;;9.07;6.10;;;;;;;14.27;93.87;97686.66;4143162;28;20648;-86
2022/09/13 03:49:40;;;;;;;8.10;6.23;;;;;;;14.29;93.71;97689.94;4156067;28;20684;-85
2022/09/13 03:51:44;;;;;;;9.50;6.20;;;;;;;14.29;94.00;97691.75;4154742;28;20724;-85
2022/09/13 03:53:52;;;;;;;6.90;6.20;;;;;;;14.30;93.35;97711.78;4159525;28;20737;-85
2022/09/13 03:55:55;;;;;;;6.83;6.13;;;;;;;14.28;93.75;97708.44;4159509;28;20651;-85
2022/09/13 03:58:00;;;;;;;7.23;6.37;;;;;;;14.28;93.38;97708.44;4159651;28;20639;-84
2022/09/13 04:00:04;;;;;;;7.10;6.40;;;;;;;14.25;93.76;97709.56;4157229;28;20742;-85
2022/09/13 04:02:14;;;;;;;6.53;5.87;;;;;;;14.22;92.65;97690.63;4160517;28;21062;-85
2022/09/13 04:04:17;;;;;;;7.53;6.77;;;;;;;14.19;93.03;97683.03;4157030;28;20671;-85
2022/09/13 04:06:20;;;;;;;9.70;6.50;;;;;;;14.17;93.26;97679.72;4161814;28;20675;-85
2022/09/13 04:08:23;;;;;;;8.00;6.77;;;;;;;14.16;92.61;97673.66;4142989;28;20637;-85
2022/09/13 04:10:26;;;;;;;8.03;6.60;;;;;;;14.14;92.51;97665.09;4144647;28;20702;-84
2022/09/13 04:12:30;;;;;;;7.63;6.50;;;;;;;14.12;92.60;97671.47;4158835;28;21227;-85
2022/09/13 04:14:34;;;;;;;8.40;6.40;;;;;;;14.11;93.13;97675.03;4160624;28;20663;-85
2022/09/13 04:16:37;;;;;;;8.27;6.50;;;;;;;14.11;93.38;97675.03;4174282;28;20907;-85
2022/09/13 04:18:40;;;;;;;7.23;6.53;;;;;;;14.11;93.35;97675.03;4173181;28;20642;-85
2022/09/13 04:20:43;;;;;;;6.90;6.20;;;;;;;14.09;93.31;97674.34;4176690;28;20638;-85
2022/09/13 04:22:51;;;;;;;9.07;6.77;;;;;;;14.08;93.51;97667.44;4140886;28;20636;-85
2022/09/13 04:24:54;;;;;;;6.73;6.03;;;;;;;14.08;92.82;97648.25;4145117;28;20767;-85
2022/09/13 04:27:03;;;;;;;7.73;5.97;;;;;;;14.06;93.83;97645.78;4138434;28;21246;-85
2022/09/13 04:29:06;;;;;;;7.80;6.70;;;;;;;14.03;93.07;97642.56;4160771;28;20643;-85
2022/09/13 04:31:11;;;;;;;8.00;5.50;;;;;;;14.02;93.51;97644.34;4142858;28;20665;-85
2022/09/13 04:33:14;;;;;;;8.50;6.80;;;;;;;14.03;94.12;97663.56;4158580;28;20651;-85
2022/09/13 04:35:18;;;;;;;8.30;6.80;;;;;;;14.06;93.98;97666.75;4157663;28;20672;-85
2022/09/13 04:37:22;;;;;;;8.10;7.20;;;;;;;14.05;93.78;97677.38;4140845;28;20640;-85
2022/09/13 04:39:25;;;;;;;11.67;6.27;;;;;;;14.07;93.37;97676.25;4170358;28;20696;-85
2022/09/13 04:41:28;;;;;;;6.47;5.80;;;;;;;14.03;93.67;97666.19;4157468;28;20684;-84
2022/09/13 04:43:31;;;;;;;7.70;5.73;;;;;;;13.99;93.23;97670.03;4158673;28;21639;-85
2022/09/13 04:45:34;;;;;;;8.93;6.53;;;;;;;13.99;93.41;97681.31;4157337;28;21051;-84
2022/09/13 04:47:39;;;;;;;8.33;6.70;;;;;;;13.98;93.76;97682.31;4153567;28;20748;-84
2022/09/13 04:49:42;;;;;;;6.67;5.87;;;;;;;14.01;94.07;97684.66;4140172;28;20664;-84
2022/09/13 04:51:45;;;;;;;8.57;6.10;;;;;;;14.02;94.26;97690.72;4143925;28;21227;-84
2022/09/13 04:53:52;;;;;;;8.20;6.63;;;;;;;14.03;93.97;97693.22;4157018;28;20691;-85
2022/09/13 04:56:00;;;;;;;6.83;6.10;;;;;;;14.05;94.38;97695.72;4156898;28;20633;-85
2022/09/13 04:58:03;;;;;;;7.27;6.00;;;;;;;14.10;94.61;97701.41;4158206;28;20630;-85
2022/09/13 05:00:08;;;;;;;8.30;6.40;;;;;;;14.12;94.44;97704.69;4137445;28;20672;-85
2022/09/13 05:02:11;;;;;;;7.00;6.30;;;;;;;14.14;94.11;97716.72;4158410;28;20726;-84
2022/09/13 05:04:16;;;;;;;9.27;7.60;;;;;;;14.15;94.16;97721.03;4154235;28;21230;-85
2022/09/13 05:06:20;;;;;;;7.70;6.53;;;;;;;14.19;94.39;97711.88;4154975;28;20660;-85
2022/09/13 05:08:23;;;;;;;9.40;6.70;;;;;;;14.21;95.04;97710.81;4157494;28;21098;-85
2022/09/13 05:10:26;;;;;;;7.83;6.53;;;;;;;14.23;94.80;97721.16;4146661;28;20617;-85
2022/09/13 05:12:29;;;;;;;8.53;6.53;;;;;;;14.25;94.85;97725.31;4154486;28;21081;-85
2022/09/13 05:14:33;;;;;;;7.33;6.00;;;;;;;14.27;94.59;97727.81;4143183;28;20668;-85
2022/09/13 05:16:36;;;;;;;9.90;6.50;;;;;;;14.33;95.17;97735.13;4152603;28;20654;-85
2022/09/13 05:18:40;;;;;;;8.47;6.70;;;;;;;14.38;94.95;97730.28;4170528;28;20717;-84
2022/09/13 05:20:48;;;;;;;10.43;6.70;;;;;;;14.52;94.99;97727.25;4156522;28;20638;-83
2022/09/13 05:22:51;;;;;;;11.60;6.50;;;;;;;14.70;95.15;97732.53;4160120;28;20638;-85
2022/09/13 05:24:55;;;;;;;9.67;6.20;;;;;;;14.88;94.55;97724.75;4161657;28;22231;-85
2022/09/13 05:26:58;;;;;;;8.00;6.70;;;;;;;15.07;94.42;97730.00;4156064;28;20679;-86
2022/09/13 05:29:01;;;;;;;10.10;6.33;;;;;;;15.24;93.25;97722.22;4158169;28;20689;-85
2022/09/13 05:31:06;;;;;;;8.60;6.07;;;;;;;15.39;92.48;97721.63;4157848;28;20643;-86
2022/09/13 05:33:09;;;;;;;9.87;6.23;;;;;;;15.54;91.55;97727.28;4140478;28;20645;-86
2022/09/13 05:35:12;;;;;;;12.27;6.40;;;;;;;15.60;92.83;97743.28;4169478;28;21280;-86
2022/09/13 05:37:17;;;;;;;8.83;6.40;;;;;;;15.60;90.57;97735.41;4153041;28;20691;-86
2022/09/13 05:39:21;;;;;;;10.23;6.70;;;;;;;15.60;91.07;97733.59;4150545;28;20637;-86
2022/09/13 05:41:44;;;;;;;8.00;6.03;;;;;;;15.62;89.95;97738.69;4168424;28;20673;-85
2022/09/13 05:43:47;;;;;;;7.60;5.87;;;;;;;15.57;90.23;97740.94;4158840;28;20681;-85
2022/09/13 05:45:50;;;;;;;6.30;5.70;;;;;;;15.53;91.20;97738.75;4145823;28;20644;-85
2022/09/13 05:47:53;;;;;;;7.00;6.30;;;;;;;15.49;90.89;97742.66;4154956;28;20638;-85
2022/09/13 05:49:56;;;;;;;7.87;6.27;;;;;;;15.47;90.29;97739.31;4156843;28;20751;-85
2022/09/13 05:52:20;;;;;;;8.60;6.47;;;;;;;15.44;90.56;97734.34;4159260;28;20671;-85
2022/09/13 05:54:23;;;;;;;7.00;5.90;;;;;;;15.43;90.59;97740.59;4151440;28;20638;-85
2022/09/13 05:56:28;;;;;;;8.17;6.03;;;;;;;15.40;90.25;97743.50;4155622;28;20660;-85
2022/09/13 05:58:31;;;;;;;6.10;5.53;;;;;;;15.37;89.90;97743.78;4138825;28;20634;-85
2022/09/13 06:00:34;;;;;;;7.53;6.20;;;;;;;15.39;92.07;97747.91;4144482;28;21254;-85
2022/09/13 06:02:37;;;;;;;8.03;6.43;;;;;;;15.42;91.60;97742.38;4157672;28;20624;-85
2022/09/13 06:04:40;;;;;;;10.43;6.70;;;;;;;15.46;91.02;97753.44;4168801;28;20694;-84
2022/09/13 06:06:43;;;;;;;7.97;6.23;;;;;;;15.45;91.55;97751.78;4154575;28;22843;-85
2022/09/13 06:08:48;;;;;;;7.70;6.60;;;;;;;15.45;90.56;97751.78;4157280;28;20647;-85
2022/09/13 06:10:55;;;;;;;6.70;6.00;;;;;;;15.45;91.77;97749.16;4156034;28;21269;-85
2022/09/13 06:12:58;;;;;;;7.40;6.07;;;;;;;15.47;90.46;97745.41;4140728;28;20761;-85
2022/09/13 06:15:01;;;;;;;8.97;6.47;;;;;;;15.55;91.86;97743.72;4140409;28;20656;-85
2022/09/13 06:17:04;;;;;;;8.40;6.67;;;;;;;15.62;92.67;97742.19;4146433;28;20633;-85
2022/09/13 06:19:07;;;;;;;8.20;6.60;;;;;;;15.68;91.57;97746.88;4138902;28;20704;-85
2022/09/13 06:21:16;;;;;;;7.23;5.87;;;;;;;15.74;90.92;97746.28;4154636;28;20637;-85
2022/09/13 06:23:19;;;;;;;9.63;6.07;;;;;;;15.78;91.36;97758.16;4154654;28;20668;-85
2022/09/13 06:25:23;;;;;;;7.43;6.37;;;;;;;15.84;91.06;97754.13;4141057;28;20998;-86
2022/09/13 06:27:26;;;;;;;8.57;7.30;;;;;;;15.90;91.20;97759.63;4173245;28;20743;-86
2022/09/13 06:29:30;;;;;;;10.27;7.47;;;;;;;15.96;92.04;97764.31;4140120;28;20646;-87
2022/09/13 06:31:33;;;;;;;9.80;6.63;;;;;;;16.00;91.48;97763.06;4156344;28;20636;-87
2022/09/13 06:33:38;;;;;;;8.13;7.27;;;;;;;16.03;90.02;97768.03;4157027;28;20648;-86
2022/09/13 06:35:41;;;;;;;8.63;7.30;;;;;;;16.05;90.65;97769.53;4159521;28;20741;-88
2022/09/13 06:37:44;;;;;;;10.87;8.47;;;;;;;16.10;91.56;97771.72;4156651;28;21244;-87
2022/09/13 06:39:47;;;;;;;10.17;8.50;;;;;;;16.16;91.15;97765.88;4144077;28;20767;-87
2022/09/13 06:41:51;;;;;;;8.00;7.03;;;;;;;16.19;89.86;97760.31;4144830;28;20988;-89
2022/09/13 06:44:01;;;;;;;9.07;7.27;;;;;;;16.22;90.30;97755.63;4155200;28;21212;-89
2022/09/13 06:46:06;;;;;;;10.50;7.27;;;;;;;16.28;90.64;97748.94;4175511;28;20642;-87
2022/09/13 06:48:09;;;;;;;10.90;7.40;;;;;;;16.37;90.52;97753.31;4172848;28;20640;-87
2022/09/13 06:50:13;;;;;;;8.60;7.70;;;;;;;16.44;90.61;97755.19;4160534;28;20655;-86
2022/09/13 06:52:16;;;;;;;8.20;6.70;;;;;;;16.54;92.05;97755.97;4134729;28;20653;-87
2022/09/13 06:54:19;;;;;;;10.10;6.87;;;;;;;16.67;90.67;97752.00;4135780;28;20641;-87
2022/09/13 06:56:23;;;;;;;8.67;7.17;;;;;;;16.85;91.15;97744.91;4142925;28;21095;-87
2022/09/13 06:58:30;;;;;;;11.47;7.47;;;;;;;17.11;91.54;97751.06;4154933;28;20632;-86
2022/09/13 07:00:33;;;;;;;7.70;6.80;;;;;;;17.32;90.72;97757.69;4151902;28;20635;-87
2022/09/13 07:02:36;;;;;;;9.83;6.80;;;;;;;17.44;89.76;97759.09;4153217;28;20683;-85
2022/09/13 07:04:39;;;;;;;9.40;7.90;;;;;;;17.53;88.81;97764.25;4153424;28;20640;-86
2022/09/13 07:06:43;;;;;;;7.70;6.90;;;;;;;17.66;88.16;97761.19;4134783;28;20669;-86
2022/09/13 07:08:47;;;;;;;8.00;6.43;;;;;;;17.72;87.22;97756.09;4145969;28;20680;-86
2022/09/13 07:10:50;;;;;;;7.20;6.50;;;;;;;17.80;87.24;97750.91;4166498;28;21088;-86
2022/09/13 07:12:53;;;;;;;9.17;6.60;;;;;;;17.97;87.07;97739.41;4139910;28;20641;-86
2022/09/13 07:14:58;;;;;;;7.67;6.57;;;;;;;18.17;86.09;97746.13;4138602;28;20625;-85
2022/09/13 07:17:01;;;;;;;8.47;7.10;;;;;;;18.31;86.80;97748.16;4140184;28;20644;-85
2022/09/13 07:19:05;;;;;;;9.87;6.40;;;;;;;18.34;85.46;97751.28;4154457;28;20699;-86
2022/09/13 07:21:10;;;;;;;7.67;6.43;;;;;;;18.49;86.91;97749.69;4141351;28;20663;-86
2022/09/13 07:23:13;;;;;;;9.70;6.47;;;;;;;18.72;86.84;97743.63;4155060;28;20663;-85
2022/09/13 07:25:17;;;;;;;9.43;6.97;;;;;;;18.93;85.58;97731.59;4156282;28;21255;-86
2022/09/13 07:27:20;;;;;;;8.77;7.60;;;;;;;19.10;86.50;97735.91;4157300;28;20642;-86
2022/09/13 07:29:23;;;;;;;7.60;6.87;;;;;;;19.20;85.27;97741.88;4141572;28;20640;-86
2022/09/13 07:31:30;;;;;;;6.87;6.17;;;;;;;19.36;82.71;97744.50;4155173;28;20623;-85
2022/09/13 07:33:33;;;;;;;7.43;6.30;;;;;;;19.62;84.15;97750.41;4142419;28;20632;-85
2022/09/13 07:35:36;;;;;;;11.00;6.30;;;;;;;19.95;82.21;97750.16;4153454;28;20990;-86
2022/09/13 07:37:41;;;;;;;6.97;6.10;;;;;;;20.11;80.16;97747.47;4140450;28;21281;-85
2022/09/13 07:39:44;;;;;;;8.20;5.70;;;;;;;20.20;81.32;97744.63;4157235;28;22013;-85
2022/09/13 07:41:47;;;;;;;5.77;5.07;;;;;;;20.50;80.41;97763.16;4144721;28;20674;-86
2022/09/13 07:43:50;;;;;;;5.97;5.00;;;;;;;20.83;79.97;97772.63;4153613;28;20630;-87
2022/09/13 07:45:57;;;;;;;5.90;5.30;;;;;;;21.17;79.88;97767.72;4154890;28;20724;-87
2022/09/13 07:48:02;;;;;;;6.10;4.90;;;;;;;21.32;79.13;97767.63;4173831;28;20647;-87
2022/09/13 07:50:06;;;;;;;6.27;5.23;;;;;;;21.27;77.94;97768.31;4177381;28;20640;-87
2022/09/13 07:52:09;;;;;;;5.33;4.83;;;;;;;21.24;78.55;97768.69;4159354;28;20649;-87
2022/09/13 07:54:14;;;;;;;6.43;4.43;;;;;;;21.26;77.88;97761.34;4143924;28;20634;-87
2022/09/13 07:56:19;;;;;;;5.47;4.20;;;;;;;21.24;76.67;97756.22;4158539;28;20670;-87
2022/09/13 07:58:22;;;;;;;4.63;4.20;;;;;;;21.22;78.28;97755.59;4138683;28;20638;-87
2022/09/13 08:00:25;;;;;;;4.63;4.00;;;;;;;21.17;77.86;97743.84;4158023;28;20631;-87
2022/09/13 08:02:28;;;;;;;10.07;7.80;;;;;;;21.14;78.31;97742.41;4159146;28;20629;-86
2022/09/13 08:04:33;;;;;;;4.67;4.23;;;;;;;21.17;78.39;97744.69;4142939;28;21097;-87
2022/09/13 08:06:39;;;;;;;5.60;4.47;;;;;;;21.21;78.80;97737.19;4176750;28;20717;-87
2022/09/13 08:08:42;;;;;;;5.60;4.40;;;;;;;21.38;78.09;97739.53;4156937;28;20633;-87
2022/09/13 08:10:45;;;;;;;5.13;4.63;;;;;;;21.55;77.31;97749.84;4159532;28;20629;-87
2022/09/13 08:12:51;;;;;;;8.13;4.23;;;;;;;21.72;77.65;97753.16;4158686;28;20645;-88
2022/09/13 08:14:54;;;;;;;6.07;4.00;;;;;;;21.90;76.52;97751.81;4160628;28;21194;-87
2022/09/13 08:16:57;;;;;;;5.40;4.90;;;;;;;22.02;75.25;97748.50;4141581;28;20651;-87
2022/09/13 08:19:02;;;;;;;5.77;3.83;;;;;;;22.05;75.39;97753.44;4158515;28;21042;-87
2022/09/13 08:21:07;;;;;;;5.70;3.97;;;;;;;22.15;75.34;97758.50;4158276;28;20655;-87
2022/09/13 08:23:11;;;;;;;5.70;3.93;;;;;;;22.24;75.55;97756.41;4159854;28;20638;-87
2022/09/13 08:25:14;;;;;;;6.30;4.07;;;;;;;22.31;74.55;97753.81;4156241;28;21263;-87
2022/09/13 08:27:17;;;;;;;4.60;4.10;;;;;;;22.39;74.99;97764.38;4156248;28;20645;-87
2022/09/13 08:29:20;;;;;;;5.93;4.50;;;;;;;22.55;75.07;97759.69;4144429;28;20626;-88
2022/09/13 08:31:24;;;;;;;4.37;3.97;;;;;;;22.76;74.08;97762.34;4169345;28;20640;-88
2022/09/13 08:33:27;;;;;;;4.00;3.60;;;;;;;22.93;73.73;97750.47;4157736;28;20626;-87
2022/09/13 08:35:30;;;;;;;5.50;3.77;;;;;;;23.06;73.16;97754.09;4157975;28;20657;-87
2022/09/13 08:37:34;;;;;;;6.30;3.90;;;;;;;23.16;71.35;97765.28;4171330;28;20745;-87
2022/09/13 08:39:38;;;;;;;4.70;3.67;;;;;;;23.23;72.18;97756.34;4144751;28;20631;-87
2022/09/13 08:42:01;;;;;;;4.33;3.70;;;;;;;23.34;71.73;97753.16;4142062;28;20631;-87
2022/09/13 08:44:08;;;;;;;8.00;4.20;;;;;;;23.36;72.54;97734.31;4151824;28;21019;-87
2022/09/13 08:46:18;;;;;;;5.37;3.60;;;;;;;23.45;72.07;97749.94;4153520;28;21094;-88
2022/09/13 08:48:23;;;;;;;3.80;3.40;;;;;;;23.53;72.47;97749.84;4171131;28;20736;-87
2022/09/13 08:50:28;;;;;;;5.50;3.57;;;;;;;23.56;71.53;97741.47;4159910;28;21018;-88
2022/09/13 08:52:36;;;;;;;4.60;3.67;;;;;;;23.63;71.54;97738.84;4155998;28;20635;-87
2022/09/13 08:54:38;;;;;;;3.93;3.30;;;;;;;23.74;70.21;97744.50;4154994;28;20639;-87
2022/09/13 08:56:46;;;;;;;6.37;3.27;;;;;;;23.80;69.65;97743.69;4142473;28;20687;-87
2022/09/13 08:59:05;;;;;;;4.10;3.60;;;;;;;23.94;69.08;97753.44;4168811;28;20647;-87
2022/09/13 09:01:13;;;;;;;4.53;3.40;;;;;;;24.00;69.61;97736.66;4156115;28;21027;-87
2022/09/13 09:03:25;;;;;;;3.67;3.30;;;;;;;23.91;68.95;97730.66;4157613;28;20679;-87
2022/09/13 09:05:29;;;;;;;4.13;3.53;;;;;;;23.91;67.58;97741.31;4162639;28;20700;-87
2022/09/13 09:07:37;;;;;;;4.87;3.47;;;;;;;23.95;67.37;97733.75;4162582;28;20693;-87
2022/09/13 09:09:43;;;;;;;5.00;3.10;;;;;;;24.10;68.09;97739.78;4159047;28;20665;-87
2022/09/13 09:11:51;;;;;;;3.63;3.30;;;;;;;24.15;66.66;97742.69;4177872;28;20635;-87
2022/09/13 09:13:58;;;;;;;3.80;2.90;;;;;;;24.06;65.14;97744.69;4145001;28;20680;-87
2022/09/13 09:16:06;;;;;;;4.40;3.27;;;;;;;23.94;64.75;97740.94;4168394;28;20645;-87
2022/09/13 09:18:13;;;;;;;6.43;3.23;;;;;;;23.82;65.71;97739.00;4160468;28;20692;-88
2022/09/13 09:20:25;;;;;;;6.03;2.70;;;;;;;23.69;65.36;97730.91;4155567;28;20677;-87
2022/09/13 09:22:33;;;;;;;5.27;4.40;;;;;;;23.62;66.92;97723.84;4153528;28;20626;-87
2022/09/13 09:24:38;;;;;;;3.47;2.80;;;;;;;23.55;66.01;97734.47;4146405;28;20624;-87
2022/09/13 09:26:41;;;;;;;4.97;2.80;;;;;;;23.55;66.18;97729.16;4139545;28;20693;-87
2022/09/13 09:28:47;;;;;;;4.13;3.20;;;;;;;23.58;67.28;97727.94;4157548;28;20715;-87
2022/09/13 09:30:58;;;;;;;3.73;2.80;;;;;;;23.63;67.56;97730.84;4159072;28;21368;-87
2022/09/13 09:33:13;;;;;;;3.97;3.20;;;;;;;23.67;66.54;97725.78;4158772;28;20635;-87
2022/09/13 09:35:26;;;;;;;4.60;3.50;;;;;;;23.69;66.38;97725.59;4159115;28;20638;-87
2022/09/13 09:37:30;;;;;;;3.77;2.80;;;;;;;23.74;67.06;97723.19;4143928;28;20666;-87
2022/09/13 09:39:37;;;;;;;3.93;2.70;;;;;;;23.81;67.37;97716.84;4159443;28;20718;-87
2022/09/13 09:41:43;;;;;;;5.10;3.27;;;;;;;23.88;66.35;97716.91;4161242;28;21237;-87
2022/09/13 09:43:51;;;;;;;3.40;2.80;;;;;;;23.98;68.31;97712.88;4161899;28;20746;-88
2022/09/13 09:45:55;;;;;;;3.77;2.90;;;;;;;24.03;67.48;97720.28;4136922;28;20666;-87
2022/09/13 09:48:02;;;;;;;4.90;3.23;;;;;;;24.08;68.76;97717.84;4172879;28;20637;-87
2022/09/13 09:50:11;;;;;;;3.30;2.70;;;;;;;24.13;68.13;97720.72;4174379;28;20689;-87
2022/09/13 09:52:16;;;;;;;3.70;3.00;;;;;;;24.15;67.94;97719.53;4155461;28;20680;-87
2022/09/13 09:54:20;;;;;;;3.60;2.97;;;;;;;24.20;67.70;97720.56;4156368;28;20664;-87